Syracuse Hancock International Airport Syracuse US
ICAO: KSYR
IATA: SYR
Category: Large
Scheduled Services: Yes

Elevation: 421 ft
TransAlt. 18000 ft.

Airport Communications:
APP/DEP:126.125
ATIS:132.05
CLNC DEL:125.05
GND:121.7
ANG OPS:139.625
TWR:120.3
UNICOM:122.95

KSYR Zoom In..

If you have problems with the map follow the link
https://www.worldairports.se/pages/airport.php?
ICAO=KSYR

Runways:

(A) RW 10 length 9003 ft width 150 ft
ILS 109.90 / hdg 100

(B) RW 15 length 7500 ft width 150 ft
---- / hdg 147

(C) RW 28 length 9003 ft width 150 ft
ILS 109.90 / hdg 280

(D) RW 33 length 7500 ft width 150 ft
---- / hdg 327

Location; KSYR
Day. 07 / Time. 08.16 Zulu
* Altimeter: 30.23
* Temperature: -04° c. -24.8°f.
* Wind from: 000° Speed 00 kn.
Dewpoint: -05° c.
Visibility: 3 Statute Miles.
Clouds: Scattered 900 ft.
Clouds: Broken 2200 ft.
Clouds: Overcast 4700 ft.
Conditions: Light Snow.Conditions: Mist.

KSYR 070816Z 00000KT 3SM -SN BR SCT009 BKN022 OVC047 M04/M05 A3023 RMK AO2 P0001 T10391050


Wind - Calm.

 
 
jpsmedia worldairports.se 2019   terms of use